Flight Track Log - Related Links

Times and Time Zones

All times are in EDT time to prevent confusion due to time zone crossing. See the SWA1535 flight status page for this flight to view local times or setup timezone preferences in your user account.

Time Position Orientation Groundspeed Altitude Reporting Facility
EDT Latitude Longitude Course Direction KTS MPH feet Rate Location/Type
Thu 06:43:18 AM 26.0750 -80.1367 80° East 159 183 900  Level Miami Center
Thu 06:43:37 AM 26.0775 -80.1206 80° East 168 193 1,500 2,381 Climbing Miami Center
Thu 06:44:21 AM 26.0928 -80.0817 66° East 235 270 3,400 3,400 Climbing Miami Center
Thu 06:44:37 AM 26.1136 -80.0844 353° North 236 272 4,900 2,600 Climbing Miami Center
Thu 06:45:21 AM 26.1467 -80.1108 324° Northwest 289 333 6,000 2,852 Climbing Miami Center
Thu 06:45:38 AM 26.1542 -80.1481 283° West 290 334 7,800 3,000 Climbing Miami Center
Thu 06:46:21 AM 26.1717 -80.1950 293° West 279 321 9,000 699 Climbing Miami Center
Thu 06:47:21 AM 26.1992 -80.2767 291° West 279 321 9,000 950 Level Miami Center
Thu 06:48:21 AM 26.2264 -80.3586 290° West 323 372 10,900 2,250 Climbing Miami Center
Thu 06:48:41 AM 26.2381 -80.4028 286° West 353 406 12,000 3,300 Climbing Miami Center
Thu 06:49:21 AM 26.2592 -80.4683 290° West 346 398 14,200 3,060 Climbing Miami Center
Thu 06:50:21 AM 26.2925 -80.5575 293° West 360 414 17,100 2,400 Climbing Miami Center
Thu 06:51:21 AM 26.3608 -80.6639 306° West 368 423 19,000 1,500 Climbing Miami Center
Thu 06:52:21 AM 26.4256 -80.7403 313° West 386 444 20,100 1,950 Climbing Miami Center
Thu 06:53:21 AM 26.5344 -80.8111 330° Northwest 398 458 22,900 2,500 Climbing Miami Center
Thu 06:54:21 AM 26.6328 -80.8772 329° Northwest 412 474 25,100 2,100 Climbing Miami Center
Thu 06:55:21 AM 26.7269 -80.9525 324° Northwest 417 480 27,100 1,850 Climbing Miami Center
Thu 06:56:21 AM 26.8164 -81.0300 322° Northwest 429 494 28,800 1,600 Climbing Miami Center
Thu 06:57:21 AM 26.9144 -81.1103 324° Northwest 439 505 30,300 1,600 Climbing Miami Center
Thu 06:58:21 AM 27.0164 -81.1933 324° Northwest 444 511 32,000 1,750 Climbing Miami Center
Thu 06:59:21 AM 27.1139 -81.2786 322° Northwest 444 511 33,800 2,000 Climbing Miami Center
Thu 07:00:21 AM 27.2139 -81.3569 325° Northwest 444 511 36,000 1,950 Climbing Miami Center
Thu 07:01:21 AM 27.3053 -81.4378 322° Northwest 439 505 37,700 1,400 Climbing Miami Center
Thu 07:02:21 AM 27.3986 -81.5186 322° Northwest 426 490 38,800 1,150 Climbing Miami Center
Thu 07:03:21 AM 27.5003 -81.6022 324° Northwest 421 484 40,000 379 Climbing Miami Center
Thu 07:05:31 AM 27.6881 -81.7536 324° Northwest 423 487 40,000  Level Jacksonville Center
Thu 07:06:31 AM 27.7806 -81.8325 323° Northwest 418 481 40,000  Level Jacksonville Center
Thu 07:07:31 AM 27.8728 -81.9136 322° Northwest 418 481 40,000  Level Jacksonville Center
Thu 07:08:31 AM 27.9631 -81.9928 322° Northwest 418 481 40,000  Level Jacksonville Center
Thu 07:09:31 AM 28.0617 -82.0647 327° Northwest 418 481 40,000  Level Jacksonville Center
Thu 07:10:31 AM 28.1686 -82.1203 335° Northwest 418 481 40,000  Level Jacksonville Center
Thu 07:11:31 AM 28.2878 -82.1572 345° North 427 491 40,000  Level Jacksonville Center
Thu 07:12:31 AM 28.4089 -82.1939 345° North 437 503 40,000  Level Jacksonville Center
Thu 07:13:31 AM 28.5300 -82.2308 345° North 442 509 40,000  Level Jacksonville Center
Thu 07:14:31 AM 28.6472 -82.2681 344° North 442 509 40,000  Level Jacksonville Center
Thu 07:15:31 AM 28.7683 -82.3053 345° North 437 503 40,000  Level Jacksonville Center
Thu 07:16:31 AM 28.8958 -82.3447 345° North 437 503 40,000  Level Jacksonville Center
Thu 07:17:31 AM 29.0150 -82.3844 344° North 430 495 40,000  Level Jacksonville Center
Thu 07:18:31 AM 29.1342 -82.4219 345° North 437 503 40,000  Level Jacksonville Center
Thu 07:19:31 AM 29.2533 -82.4569 346° North 437 503 40,000  Level Jacksonville Center
Thu 07:20:31 AM 29.3703 -82.4947 344° North 437 503 40,000  Level Jacksonville Center
Thu 07:21:31 AM 29.4894 -82.5322 345° North 437 503 40,000  Level Jacksonville Center
Thu 07:22:31 AM 29.6083 -82.5700 345° North 437 503 40,000  Level Jacksonville Center
Thu 07:23:31 AM 29.7275 -82.6081 345° North 437 503 40,000  Level Jacksonville Center
Thu 07:24:31 AM 29.8486 -82.6508 343° North 437 503 40,000  Level Jacksonville Center
Thu 07:25:31 AM 29.9678 -82.6889 345° North 444 511 40,000  Level Jacksonville Center
Thu 07:26:31 AM 30.0911 -82.7244 346° North 439 505 40,000  Level Jacksonville Center
Thu 07:27:31 AM 30.2100 -82.7628 344° North 439 505 40,000  Level Jacksonville Center
Thu 07:28:31 AM 30.3292 -82.8036 344° North 439 505 40,000  Level Jacksonville Center
Thu 07:29:31 AM 30.4503 -82.8419 345° North 439 505 40,000  Level Jacksonville Center
Thu 07:30:31 AM 30.5692 -82.8831 343° North 439 505 40,000  Level Jacksonville Center
Thu 07:31:31 AM 30.6883 -82.9239 344° North 439 505 40,000  Level Jacksonville Center
Thu 07:32:31 AM 30.8094 -82.9603 346° North 439 505 40,000  Level Jacksonville Center
Thu 07:33:31 AM 30.9117 -82.9942 344° North 427 491 40,000  Level Jacksonville Center
Thu 07:34:31 AM 31.0264 -83.0331 344° North 427 491 40,000  Level Jacksonville Center
Thu 07:36:49 AM 31.3069 -83.1275 344° North 432 497 40,000  Level Atlanta Center
Thu 07:37:49 AM 31.4219 -83.1628 345° North 427 491 40,000  Level Atlanta Center
Thu 07:38:49 AM 31.5372 -83.2031 343° North 427 491 40,000  Level Atlanta Center
Thu 07:39:49 AM 31.6417 -83.2389 344° North 422 486 40,000  Level Atlanta Center
Thu 07:40:49 AM 31.7567 -83.2744 345° North 422 486 40,000  Level Atlanta Center
Thu 07:41:49 AM 31.8717 -83.3150 343° North 422 486 40,000  Level Atlanta Center
Thu 07:42:49 AM 31.9889 -83.3533 344° North 427 491 40,000  Level Atlanta Center
Thu 07:43:49 AM 32.1039 -83.3917 344° North 427 491 40,000  Level Atlanta Center
Thu 07:44:49 AM 32.2211 -83.4325 344° North 427 491 40,000  Level Atlanta Center
Thu 07:45:49 AM 32.3339 -83.4711 344° North 422 486 40,000  Level Atlanta Center
Thu 07:46:49 AM 32.4531 -83.5119 344° North 422 486 40,000  Level Atlanta Center
Thu 07:47:49 AM 32.5681 -83.5508 344° North 427 491 40,000  Level Atlanta Center
Thu 07:48:49 AM 32.6872 -83.5922 344° North 427 491 40,000  Level Atlanta Center
Thu 07:49:49 AM 32.8042 -83.6336 343° North 435 501 40,000  Level Atlanta Center
Thu 07:50:49 AM 32.9233 -83.6725 345° North 435 501 40,000  Level Atlanta Center
Thu 07:51:49 AM 33.0425 -83.7167 343° North 435 501 40,000  Level Atlanta Center
Thu 07:52:49 AM 33.1614 -83.7558 345° North 440 506 40,000  Level Atlanta Center
Thu 07:53:49 AM 33.2806 -83.7953 345° North 434 499 40,000  Level Atlanta Center
Thu 07:54:49 AM 33.4100 -83.8422 343° North 434 499 40,000  Level Atlanta Center
Thu 07:55:49 AM 33.5269 -83.8819 344° North 434 499 40,000  Level Atlanta Center
Thu 07:56:49 AM 33.6439 -83.9239 343° North 434 499 40,000  Level Atlanta Center
Thu 07:57:49 AM 33.7608 -83.9614 345° North 434 499 40,000  Level Atlanta Center
Thu 07:58:49 AM 33.8778 -84.0039 343° North 434 499 40,000  Level Atlanta Center
Thu 07:59:49 AM 33.9967 -84.0439 344° North 434 499 40,000  Level Atlanta Center
Thu 08:00:49 AM 34.0969 -84.0864 341° North 434 499 40,000  Level Atlanta Center
Thu 08:01:49 AM 34.2181 -84.1242 346° North 434 499 40,000  Level Atlanta Center
Thu 08:02:49 AM 34.3286 -84.1694 341° North 434 499 40,000  Level Atlanta Center
Thu 08:03:49 AM 34.4619 -84.2153 344° North 439 505 40,000  Level Atlanta Center
Thu 08:04:49 AM 34.5789 -84.2558 344° North 439 505 40,000  Level Atlanta Center
Thu 08:05:49 AM 34.6978 -84.2964 344° North 439 505 40,000  Level Atlanta Center
Thu 08:06:49 AM 34.8144 -84.3397 343° North 439 505 40,000  Level Atlanta Center
Thu 08:07:49 AM 34.9292 -84.3833 343° North 433 498 40,000  Level Atlanta Center
Thu 08:08:49 AM 35.0458 -84.4244 344° North 433 498 40,000  Level Atlanta Center
Thu 08:09:49 AM 35.1625 -84.4656 344° North 438 504 40,000  Level Atlanta Center
Thu 08:10:49 AM 35.2792 -84.5094 343° North 438 504 40,000  Level Atlanta Center
Thu 08:11:49 AM 35.3958 -84.5508 344° North 438 504 40,000  Level Atlanta Center
Thu 08:12:49 AM 35.5125 -84.5925 344° North 438 504 40,000  Level Atlanta Center
Thu 08:13:49 AM 35.6314 -84.6367 343° North 438 504 40,000  Level Atlanta Center
Thu 08:15:37 AM 35.8439 -84.7125 344° North 439 505 40,000  Level Indianapolis Center
Thu 08:16:39 AM 35.9592 -84.7569 343° North 444 511 40,000  Level Indianapolis Center
Thu 08:17:41 AM 36.0753 -84.8003 343° North 443 510 40,000  Level Indianapolis Center
Thu 08:18:42 AM 36.1931 -84.8444 343° North 444 511 40,000  Level Indianapolis Center
Thu 08:19:44 AM 36.3103 -84.8886 343° North 441 507 40,000  Level Indianapolis Center
Thu 08:20:45 AM 36.4519 -84.9431 343° North 445 512 40,000  Level Indianapolis Center
Thu 08:21:47 AM 36.5717 -84.9867 344° North 448 516 40,000  Level Indianapolis Center
Thu 08:22:48 AM 36.6917 -85.0325 343° North 449 517 40,000  Level Indianapolis Center
Thu 08:23:50 AM 36.8100 -85.0769 343° North 448 516 40,000  Level Indianapolis Center
Thu 08:24:51 AM 36.9289 -85.1225 343° North 446 513 40,000  Level Indianapolis Center
Thu 08:25:53 AM 37.0614 -85.1733 343° North 442 509 40,000  Level Indianapolis Center
Thu 08:26:54 AM 37.1797 -85.2189 343° North 442 509 40,000  Level Indianapolis Center
Thu 08:27:56 AM 37.2964 -85.2633 343° North 438 504 40,000  Level Indianapolis Center
Thu 08:28:58 AM 37.4150 -85.3081 343° North 441 507 40,000  Level Indianapolis Center
Thu 08:29:59 AM 37.5322 -85.3544 343° North 441 507 40,000  Level Indianapolis Center
Thu 08:31:01 AM 37.6517 -85.3897 347° North 443 510 40,000  Level Indianapolis Center
Thu 08:32:02 AM 37.7711 -85.4169 350° North 436 502 40,000  Level Indianapolis Center
Thu 08:33:04 AM 37.9056 -85.4447 351° North 451 519 40,000  Level Indianapolis Center
Thu 08:34:05 AM 38.0269 -85.4725 350° North 445 512 40,000  Level Indianapolis Center
Thu 08:35:07 AM 38.1503 -85.4997 350° North 447 514 40,000 -293 Level Indianapolis Center
Thu 08:36:08 AM 38.2728 -85.5278 350° North 448 516 39,400 -1,463 Descending Indianapolis Center
Thu 08:37:10 AM 38.3947 -85.5550 350° North 445 512 37,000 -2,146 Descending Indianapolis Center
Thu 08:38:11 AM 38.5161 -85.5833 350° North 443 510 35,000 -1,171 Descending Indianapolis Center
Thu 08:39:13 AM 38.6397 -85.6119 350° North 447 514 34,600 -774 Descending Indianapolis Center
Thu 08:40:15 AM 38.7828 -85.6444 350° North 441 507 33,400 -976 Descending Indianapolis Center
Thu 08:41:16 AM 38.9036 -85.6722 350° North 440 506 32,600 -878 Descending Indianapolis Center
Thu 08:42:18 AM 39.0222 -85.7000 350° North 438 504 31,600 -976 Descending Indianapolis Center
Thu 08:43:19 AM 39.1378 -85.7275 350° North 428 493 30,600 -976 Descending Indianapolis Center
Thu 08:44:21 AM 39.2533 -85.7539 350° North 423 487 29,600 -968 Descending Indianapolis Center
Thu 08:45:23 AM 39.3650 -85.7803 350° North 414 476 28,600 -780 Descending Indianapolis Center
Thu 08:46:24 AM 39.4967 -85.8111 350° North 405 466 28,000 -293 Descending Indianapolis Center
Thu 08:47:26 AM 39.6067 -85.8372 350° North 405 466 28,000  Level Indianapolis Center
Thu 08:48:28 AM 39.7147 -85.8622 350° North 401 461 28,000 -780 Level Indianapolis Center
Thu 08:49:29 AM 39.8242 -85.8881 350° North 404 465 26,400 -1,805 Descending Indianapolis Center
Thu 08:50:31 AM 39.9314 -85.9144 349° North 399 459 24,300 -1,161 Descending Indianapolis Center
Thu 08:51:33 AM 40.0606 -85.9450 350° North 397 457 24,000 -153 Descending Indianapolis Center
Thu 08:52:29 AM 40.1483 -85.9642 351° North 400 460 24,000 -458 Level Chicago Center
Thu 08:53:31 AM 40.2561 -85.9903 350° North 398 458 23,100 -1,016 Descending Chicago Center
Thu 08:54:33 AM 40.3822 -86.0219 349° North 386 444 21,900 -1,073 Descending Chicago Center
Thu 08:55:34 AM 40.4808 -86.0578 345° North 371 427 20,900 -976 Descending Chicago Center
Thu 08:56:36 AM 40.5711 -86.1175 333° Northwest 364 419 19,900 -968 Descending Chicago Center
Thu 08:57:38 AM 40.6617 -86.1783 333° Northwest 366 421 18,900 -1,210 Descending Chicago Center
Thu 08:58:40 AM 40.7478 -86.2339 334° Northwest 354 407 17,400 -1,659 Descending Chicago Center
Thu 08:59:41 AM 40.8350 -86.2906 334° Northwest 349 402 15,500 -2,049 Descending Chicago Center
Thu 09:00:43 AM 40.9375 -86.3583 333° Northwest 343 395 13,200 -1,984 Descending Chicago Center
Thu 09:01:45 AM 41.0200 -86.4150 333° Northwest 338 389 11,400 -1,073 Descending Chicago Center
Thu 09:02:46 AM 41.0847 -86.4997 315° West 332 382 11,000 -390 Descending Chicago Center
Thu 09:03:48 AM 41.1450 -86.5903 311° West 329 379 10,600 -532 Descending Chicago Center
Thu 09:04:50 AM 41.2053 -86.6819 311° West 331 381 9,900 -341 Descending Chicago Center
Thu 09:05:51 AM 41.2678 -86.7789 311° West 321 369 9,900  Level Chicago Center
Thu 09:06:53 AM 41.3269 -86.8683 311° West 324 373 9,900 -97 Level Chicago Center
Thu 09:07:55 AM 41.3850 -86.9589 311° West 323 372 9,700 -919 Descending Chicago Center
Thu 09:08:57 AM 41.4431 -87.0469 311° West 320 368 8,000 -1,707 Descending Chicago Center
Thu 09:09:58 AM 41.5072 -87.1453 311° West 297 342 6,200 -927 Descending Chicago Center
Thu 09:11:00 AM 41.5333 -87.2500 288° West 276 318 6,100 -517 Descending Chicago TRACON
Thu 09:11:54 AM 41.5500 -87.3333 285° West 279 321 5,200 -1,000 Descending Chicago TRACON
Thu 09:12:48 AM 41.5667 -87.4167 285° West 275 316 4,300 -957 Descending Chicago TRACON
Thu 09:13:03 AM 41.5686 -87.4364 278° West 275 316 4,100 -234 Descending Chicago Center
Thu 09:14:05 AM 41.5675 -87.5361 269° West 272 313 4,000 -48 Descending Chicago Center
Thu 09:15:07 AM 41.5783 -87.6322 279° West 267 307 4,000  Level Chicago Center
Thu 09:16:09 AM 41.5939 -87.7481 280° West 267 307 4,000  Level Chicago Center
Thu 09:17:10 AM 41.6061 -87.8297 281° West 246 283 4,000  Level Chicago Center
Thu 09:18:12 AM 41.5733 -87.8758 226° Southwest 204 235 4,000  Level Chicago Center
Thu 09:19:14 AM 41.5572 -87.9278 248° West 197 227 4,000  Level Chicago Center
Thu 09:20:16 AM 41.5969 -87.9664 324° Northwest 206 237 4,000  Level Chicago Center
Thu 09:21:18 AM 41.6511 -87.9233 31° Northeast 197 227 4,000 -435 Level Chicago Center
Thu 09:22:20 AM 41.6886 -87.8736 45° Northeast 193 222 3,100 -902 Descending Chicago Center
Thu 09:23:31 AM 41.7333 -87.8167 44° Northeast 162 186 2,000 -810 Descending Chicago TRACON
Thu 09:24:26 AM 41.7500 -87.7833 56° Northeast 119 137 1,400 -655 Descending Chicago TRACON
Thu 09:27:00 AM 41.7833 -87.7500 20° North  Level FlightAware Approximate

Login

Don't have an account? Register now (free) for customized features, flight alerts, and more!